Time;durP1;ratioP1;P1;durP2;ratioP2;P2;SDS_P1;SDS_P2;PMS_P1;PMS_P2;Temp;Humidity;BMP_temperature;BMP_pressure;BME280_temperature;BME280_humidity;BME280_pressure;Samples;Min_cycle;Max_cycle;Signal;HPM_P1;HPM_P2
2022/11/03 05:00:31;;;;;;;6.88;3.00;;;;;;;;;;5998211;23;21288;-81
2022/11/03 05:02:57;;;;;;;6.78;3.10;;;;;;;;;;5025265;28;20968;-86
2022/11/03 05:05:25;;;;;;;4.30;3.05;;;;;;;;;;5034167;28;20395;-86
2022/11/03 05:07:52;;;;;;;3.88;2.67;;;;;;;;;;5025464;28;20476;-86
2022/11/03 05:10:20;;;;;;;3.08;2.47;;;;;;;;;;5043010;28;20383;-85
2022/11/03 05:12:47;;;;;;;4.15;2.78;;;;;;;;;;4998733;28;20418;-86
2022/11/03 05:15:35;;;;;;;4.45;2.90;;;;;;;;;;5003191;28;20739;-86
2022/11/03 05:18:03;;;;;;;3.25;2.70;;;;;;;;;;5013599;28;20385;-85
2022/11/03 05:20:36;;;;;;;3.47;2.33;;;;;;;;;;5020869;28;20417;-86
2022/11/03 05:23:03;;;;;;;3.83;2.80;;;;;;;;;;5033791;28;20406;-85
2022/11/03 05:25:41;;;;;;;5.13;2.72;;;;;;;;;;5033905;28;20383;-86
2022/11/03 05:28:14;;;;;;;2.67;2.25;;;;;;;;;;5033738;28;20417;-86
2022/11/03 05:30:40;;;;;;;4.22;2.70;;;;;;;;;;5033611;28;20864;-87
2022/11/03 05:33:35;;;;;;;4.95;3.13;;;;;;;;;;5019326;28;20389;-85
2022/11/03 05:36:06;;;;;;;4.70;3.30;;;;;;;;;;5011414;28;20417;-85
2022/11/03 05:38:32;;;;;;;4.85;3.50;;;;;;;;;;5031204;28;20379;-86
2022/11/03 05:40:59;;;;;;;7.45;4.00;;;;;;;;;;5016802;28;20432;-85
2022/11/03 05:43:25;;;;;;;6.55;4.25;;;;;;;;;;5033342;28;20380;-86
2022/11/03 05:45:53;;;;;;;8.93;4.78;;;;;;;;;;5008527;28;20381;-86
2022/11/03 05:48:36;;;;;;;8.80;4.50;;;;;;;;;;5027029;28;20524;-87
2022/11/03 05:51:11;;;;;;;12.45;7.88;;;;;;;;;;5026846;28;20434;-86
2022/11/03 05:53:40;;;;;;;8.40;4.47;;;;;;;;;;5018427;28;20385;-86
2022/11/03 05:56:06;;;;;;;10.93;5.45;;;;;;;;;;5027722;28;20506;-87
2022/11/03 05:58:40;;;;;;;17.58;8.82;;;;;;;;;;5027381;28;20455;-86
2022/11/03 06:01:16;;;;;;;11.23;6.80;;;;;;;;;;5032913;28;20399;-86
2022/11/03 06:03:44;;;;;;;9.93;4.90;;;;;;;;;;5027403;28;20763;-87
2022/11/03 06:06:19;;;;;;;11.60;5.40;;;;;;;;;;5024502;28;20379;-86
2022/11/03 06:08:46;;;;;;;9.65;5.15;;;;;;;;;;5019225;28;20377;-87
2022/11/03 06:11:22;;;;;;;11.57;6.00;;;;;;;;;;5032816;28;20379;-85
2022/11/03 06:13:48;;;;;;;14.02;5.57;;;;;;;;;;5033094;28;20371;-87
2022/11/03 06:16:16;;;;;;;13.38;6.15;;;;;;;;;;5032870;28;20736;-86
2022/11/03 06:18:42;;;;;;;12.52;6.40;;;;;;;;;;5021075;28;20385;-86
2022/11/03 06:21:12;;;;;;;13.77;6.43;;;;;;;;;;5011177;28;20395;-87
2022/11/03 06:23:39;;;;;;;13.00;7.07;;;;;;;;;;5016044;28;20881;-86
2022/11/03 06:26:08;;;;;;;15.23;7.65;;;;;;;;;;5009918;28;20384;-87
2022/11/03 06:28:35;;;;;;;12.18;6.68;;;;;;;;;;5012523;28;20381;-87
2022/11/03 06:31:03;;;;;;;9.68;6.30;;;;;;;;;;5022067;28;20395;-87
2022/11/03 06:33:33;;;;;;;9.18;6.65;;;;;;;;;;5013403;28;20936;-86
2022/11/03 06:36:25;;;;;;;10.32;6.30;;;;;;;;;;5025858;28;20444;-86
2022/11/03 06:38:59;;;;;;;9.90;6.60;;;;;;;;;;5028123;28;20418;-86
2022/11/03 06:41:45;;;;;;;11.70;7.00;;;;;;;;;;5032305;28;20372;-86
2022/11/03 06:44:25;;;;;;;8.48;6.68;;;;;;;;;;5014549;28;20379;-88
2022/11/03 06:46:55;;;;;;;11.50;7.05;;;;;;;;;;5029351;28;20379;-87
2022/11/03 06:49:40;;;;;;;18.58;13.05;;;;;;;;;;5032382;28;20414;-87
2022/11/03 06:52:24;;;;;;;12.32;8.40;;;;;;;;;;5012536;28;20724;-87
2022/11/03 06:55:02;;;;;;;22.85;14.32;;;;;;;;;;5012812;28;20417;-87
2022/11/03 06:57:38;;;;;;;17.27;10.48;;;;;;;;;;5020358;28;20390;-89
2022/11/03 07:00:22;;;;;;;15.35;9.15;;;;;;;;;;5032124;28;20414;-88
2022/11/03 07:03:08;;;;;;;13.00;7.78;;;;;;;;;;5029810;28;20387;-87
2022/11/03 07:05:37;;;;;;;12.10;8.18;;;;;;;;;;5032008;28;20477;-87
2022/11/03 07:08:17;;;;;;;10.27;7.10;;;;;;;;;;5012948;28;20382;-86
2022/11/03 07:10:46;;;;;;;12.27;7.95;;;;;;;;;;5030067;28;20562;-87
2022/11/03 07:13:17;;;;;;;13.93;9.85;;;;;;;;;;5031351;28;20474;-86
2022/11/03 07:15:44;;;;;;;12.23;8.98;;;;;;;;;;5032492;28;20379;-89
2022/11/03 07:18:16;;;;;;;12.43;8.02;;;;;;;;;;5032092;28;20887;-87
2022/11/03 07:20:48;;;;;;;14.50;8.50;;;;;;;;;;5031694;28;21063;-87
2022/11/03 07:23:16;;;;;;;15.33;8.87;;;;;;;;;;5031936;28;20459;-88
2022/11/03 07:25:43;;;;;;;14.87;8.80;;;;;;;;;;5019799;28;20846;-87
2022/11/03 07:28:12;;;;;;;12.77;8.18;;;;;;;;;;5030395;28;20375;-86
2022/11/03 07:30:38;;;;;;;15.70;8.63;;;;;;;;;;5013164;28;20401;-87
2022/11/03 07:33:21;;;;;;;14.30;8.25;;;;;;;;;;5014152;28;20487;-87
2022/11/03 07:35:56;;;;;;;20.00;9.55;;;;;;;;;;5023046;28;20415;-88
2022/11/03 07:38:22;;;;;;;17.00;9.27;;;;;;;;;;5031906;28;20871;-88
2022/11/03 07:40:49;;;;;;;19.77;9.90;;;;;;;;;;5031693;28;20411;-88
2022/11/03 07:43:35;;;;;;;18.35;9.05;;;;;;;;;;5031652;28;20395;-87
2022/11/03 07:46:04;;;;;;;18.30;10.03;;;;;;;;;;5032195;28;20367;-91
2022/11/03 07:48:46;;;;;;;18.48;11.20;;;;;;;;;;5017208;28;20470;-87
2022/11/03 07:51:20;;;;;;;18.88;10.85;;;;;;;;;;5012749;28;20376;-88
2022/11/03 07:53:54;;;;;;;16.58;10.75;;;;;;;;;;5002281;28;20394;-87
2022/11/03 07:56:29;;;;;;;17.77;10.52;;;;;;;;;;5008974;28;20439;-88
2022/11/03 07:59:15;;;;;;;15.20;10.27;;;;;;;;;;5012185;28;20460;-88
2022/11/03 08:01:49;;;;;;;19.23;11.07;;;;;;;;;;5001313;28;20424;-87
2022/11/03 08:04:20;;;;;;;19.55;11.05;;;;;;;;;;5014330;28;20377;-88
2022/11/03 08:06:55;;;;;;;20.02;11.45;;;;;;;;;;5010400;28;20373;-88
2022/11/03 08:09:21;;;;;;;20.85;10.57;;;;;;;;;;5012912;28;20417;-88
2022/11/03 08:11:49;;;;;;;15.77;10.45;;;;;;;;;;5010679;28;20417;-87
2022/11/03 08:14:18;;;;;;;19.40;11.25;;;;;;;;;;5023335;28;20400;-88
2022/11/03 08:16:48;;;;;;;18.63;11.30;;;;;;;;;;5028627;28;20425;-89
2022/11/03 08:19:16;;;;;;;16.52;11.18;;;;;;;;;;5017445;28;20417;-88
2022/11/03 08:21:42;;;;;;;20.30;11.25;;;;;;;;;;5035125;28;20387;-87
2022/11/03 08:24:08;;;;;;;19.60;10.38;;;;;;;;;;5032135;28;20417;-86
2022/11/03 08:26:34;;;;;;;16.27;11.03;;;;;;;;;;5020533;28;20471;-88
2022/11/03 08:29:00;;;;;;;18.15;11.27;;;;;;;;;;5035172;28;20379;-90
2022/11/03 08:31:26;;;;;;;20.15;11.73;;;;;;;;;;5028356;28;20552;-89
2022/11/03 08:33:55;;;;;;;18.25;11.77;;;;;;;;;;5024342;28;20383;-89
2022/11/03 08:36:21;;;;;;;20.65;11.98;;;;;;;;;;5034798;28;20868;-88
2022/11/03 08:38:47;;;;;;;22.23;12.47;;;;;;;;;;5030130;28;20471;-89
2022/11/03 08:41:13;;;;;;;21.77;12.50;;;;;;;;;;5024454;28;20448;-90
2022/11/03 08:43:44;;;;;;;53.95;25.98;;;;;;;;;;5033352;28;20391;-90
2022/11/03 08:46:16;;;;;;;29.50;15.90;;;;;;;;;;5034916;28;20382;-88
2022/11/03 08:48:42;;;;;;;24.63;13.98;;;;;;;;;;5028722;28;20421;-90
2022/11/03 08:51:09;;;;;;;26.75;13.48;;;;;;;;;;5026397;28;20472;-89
2022/11/03 08:53:35;;;;;;;27.70;14.32;;;;;;;;;;5030361;28;20881;-89
2022/11/03 08:56:01;;;;;;;29.35;14.75;;;;;;;;;;5019763;28;20376;-89
2022/11/03 08:58:29;;;;;;;36.00;19.17;;;;;;;;;;5030331;28;20383;-89
2022/11/03 09:00:56;;;;;;;37.03;18.10;;;;;;;;;;5033933;28;20765;-89
2022/11/03 09:03:25;;;;;;;32.80;16.88;;;;;;;;;;5031627;28;20407;-88
2022/11/03 09:05:51;;;;;;;31.33;16.10;;;;;;;;;;5034236;28;20470;-89
2022/11/03 09:08:17;;;;;;;48.03;19.92;;;;;;;;;;5033959;28;20407;-89
2022/11/03 09:10:43;;;;;;;40.13;17.85;;;;;;;;;;5009236;28;20402;-89
2022/11/03 09:13:15;;;;;;;59.80;27.60;;;;;;;;;;5034460;28;20421;-90
2022/11/03 09:15:41;;;;;;;32.50;17.53;;;;;;;;;;5034060;28;20415;-89
2022/11/03 09:18:07;;;;;;;35.67;19.48;;;;;;;;;;5033815;28;20383;-89
2022/11/03 09:20:36;;;;;;;36.00;18.10;;;;;;;;;;5034173;28;20402;-90
2022/11/03 09:23:01;;;;;;;44.23;23.77;;;;;;;;;;5033833;28;20383;-89
2022/11/03 09:25:28;;;;;;;39.28;21.60;;;;;;;;;;5032769;28;20733;-90
2022/11/03 09:27:59;;;;;;;147.25;73.50;;;;;;;;;;5033813;28;20375;-88
2022/11/03 09:30:25;;;;;;;37.05;21.13;;;;;;;;;;5033659;28;20737;-89
2022/11/03 09:32:51;;;;;;;39.55;21.63;;;;;;;;;;5022431;28;20377;-89
2022/11/03 09:35:25;;;;;;;34.53;20.98;;;;;;;;;;5033891;28;20398;-90
2022/11/03 09:37:51;;;;;;;35.92;21.35;;;;;;;;;;5033971;28;20407;-89
2022/11/03 09:40:26;;;;;;;34.77;20.53;;;;;;;;;;5027110;28;20463;-89
2022/11/03 09:42:52;;;;;;;38.88;21.95;;;;;;;;;;5033643;28;20391;-90
2022/11/03 09:45:23;;;;;;;37.05;21.40;;;;;;;;;;5028038;28;20377;-89
2022/11/03 09:47:49;;;;;;;36.45;21.98;;;;;;;;;;5025937;28;20387;-90
2022/11/03 09:50:18;;;;;;;37.75;21.98;;;;;;;;;;5014382;28;20388;-90
2022/11/03 09:52:53;;;;;;;39.70;21.30;;;;;;;;;;5020443;28;20389;-90
2022/11/03 09:55:21;;;;;;;31.38;20.63;;;;;;;;;;5027403;28;20439;-89
2022/11/03 09:57:47;;;;;;;24.05;17.38;;;;;;;;;;5014740;28;20452;-89
2022/11/03 10:00:18;;;;;;;25.13;17.30;;;;;;;;;;5015957;28;20527;-89
2022/11/03 10:02:44;;;;;;;26.20;18.77;;;;;;;;;;5030609;28;20387;-89
2022/11/03 10:05:13;;;;;;;29.85;19.98;;;;;;;;;;5033161;28;20942;-90
2022/11/03 10:07:39;;;;;;;29.50;20.23;;;;;;;;;;5033086;28;20375;-89
2022/11/03 10:10:14;;;;;;;25.98;17.58;;;;;;;;;;5023024;28;20401;-91
2022/11/03 10:12:43;;;;;;;25.00;17.60;;;;;;;;;;5014471;28;20379;-89
2022/11/03 10:15:16;;;;;;;29.00;17.85;;;;;;;;;;5022731;28;20390;-90
2022/11/03 10:17:46;;;;;;;26.77;18.30;;;;;;;;;;5032705;28;20730;-92
2022/11/03 10:20:16;;;;;;;23.33;17.88;;;;;;;;;;5023979;28;20494;-89
2022/11/03 10:22:42;;;;;;;22.85;16.73;;;;;;;;;;5026821;28;20462;-89
2022/11/03 10:25:27;;;;;;;20.83;15.48;;;;;;;;;;5020898;28;20383;-91
2022/11/03 10:28:10;;;;;;;17.30;14.30;;;;;;;;;;5033070;28;20399;-93
2022/11/03 10:30:49;;;;;;;20.17;15.63;;;;;;;;;;5021851;28;20432;-91
2022/11/03 10:33:26;;;;;;;26.08;18.30;;;;;;;;;;5009828;28;20787;-90
2022/11/03 10:35:52;;;;;;;29.10;19.52;;;;;;;;;;5013116;28;20385;-91
2022/11/03 10:38:39;;;;;;;23.15;17.92;;;;;;;;;;5002986;28;20417;-91
2022/11/03 10:41:19;;;;;;;22.33;17.25;;;;;;;;;;5039237;23;20423;-90
2022/11/03 10:44:06;;;;;;;18.63;15.73;;;;;;;;;;5008824;28;20712;-90
2022/11/03 10:46:33;;;;;;;16.35;14.30;;;;;;;;;;4986942;28;20404;-88
2022/11/03 10:49:13;;;;;;;16.45;14.75;;;;;;;;;;5034184;28;20381;-90
2022/11/03 10:51:39;;;;;;;19.83;16.08;;;;;;;;;;5038045;28;20379;-90
2022/11/03 10:54:09;;;;;;;20.48;16.60;;;;;;;;;;5052445;28;20385;-91
2022/11/03 10:56:35;;;;;;;19.02;15.25;;;;;;;;;;5043489;28;20383;-91
2022/11/03 10:59:02;;;;;;;25.33;18.63;;;;;;;;;;5052545;28;20380;-90
2022/11/03 11:01:36;;;;;;;24.02;17.73;;;;;;;;;;5052074;28;20381;-91
2022/11/03 11:04:04;;;;;;;26.27;18.42;;;;;;;;;;5024350;28;20465;-89
2022/11/03 11:09:29;;;;;;;26.67;19.17;;;;;;;;;;5036908;28;20396;-94
2022/11/03 11:15:24;;;;;;;22.02;17.88;;;;;;;;;;5060751;28;20384;-90
2022/11/03 11:17:53;;;;;;;20.77;17.42;;;;;;;;;;5020303;28;20483;-91
2022/11/03 11:20:29;;;;;;;21.75;17.40;;;;;;;;;;5045754;28;20401;-90
2022/11/03 11:22:55;;;;;;;25.98;17.55;;;;;;;;;;5030956;28;20429;-91
2022/11/03 11:25:21;;;;;;;20.60;16.73;;;;;;;;;;5030647;28;20387;-91
2022/11/03 11:27:57;;;;;;;19.17;16.98;;;;;;;;;;5031247;28;20375;-91
2022/11/03 11:30:29;;;;;;;18.63;16.05;;;;;;;;;;5013822;28;20411;-91
2022/11/03 11:33:30;;;;;;;17.30;15.55;;;;;;;;;;5028637;28;20379;-92
2022/11/03 11:35:56;;;;;;;19.73;17.10;;;;;;;;;;5031907;28;20382;-92
2022/11/03 11:38:40;;;;;;;20.20;17.00;;;;;;;;;;5027105;28;20392;-90
2022/11/03 11:41:07;;;;;;;19.98;17.92;;;;;;;;;;5024945;28;20383;-91
2022/11/03 11:43:33;;;;;;;23.75;19.17;;;;;;;;;;5026431;28;20418;-89
2022/11/03 11:49:08;;;;;;;28.30;21.13;;;;;;;;;;5008650;28;20750;-90
2022/11/03 11:51:54;;;;;;;20.70;18.20;;;;;;;;;;5021477;28;20439;-91
2022/11/03 11:54:20;;;;;;;20.85;18.50;;;;;;;;;;5027940;28;20481;-89
2022/11/03 11:56:55;;;;;;;19.90;17.15;;;;;;;;;;5034444;28;20390;-90
2022/11/03 11:59:22;;;;;;;20.85;17.00;;;;;;;;;;5026668;28;20389;-93
2022/11/03 12:02:01;;;;;;;18.80;16.77;;;;;;;;;;5033092;28;20383;-92
2022/11/03 12:04:32;;;;;;;17.80;16.07;;;;;;;;;;5035082;28;20391;-90
2022/11/03 12:06:58;;;;;;;19.02;17.02;;;;;;;;;;5038728;28;20383;-93
2022/11/03 12:09:26;;;;;;;18.00;16.20;;;;;;;;;;5033720;28;20410;-92
2022/11/03 12:11:55;;;;;;;17.30;15.60;;;;;;;;;;5037154;23;20434;-92
2022/11/03 12:17:55;;;;;;;15.88;14.38;;;;;;;;;;4991068;28;20475;-92
2022/11/03 12:20:52;;;;;;;;;;;;;;;;;;;;;
2022/11/03 12:23:39;;;;;;;13.73;12.63;;;;;;;;;;5000071;28;20381;-92
2022/11/03 12:26:06;;;;;;;16.77;14.77;;;;;;;;;;5005257;28;20372;-92
2022/11/03 12:28:55;;;;;;;49.43;35.70;;;;;;;;;;4993917;28;20393;-91
2022/11/03 12:31:21;;;;;;;20.75;17.17;;;;;;;;;;4921498;29;20893;-92
2022/11/03 12:36:58;;;;;;;17.83;15.98;;;;;;;;;;4993515;28;20489;-91
2022/11/03 12:40:12;;;;;;;21.92;18.30;;;;;;;;;;5015403;28;20459;-94
2022/11/03 12:44:02;;;;;;;21.30;17.60;;;;;;;;;;5069238;23;20507;-94
2022/11/03 12:46:17;;;;;;;22.75;20.35;;;;;;;;;;4960324;28;20573;-92
2022/11/03 12:48:43;;;;;;;34.67;24.02;;;;;;;;;;5064105;28;20430;-91
2022/11/03 12:51:49;;;;;;;30.75;24.52;;;;;;;;;;5056498;28;20416;-90
2022/11/03 12:54:08;;;;;;;32.97;25.50;;;;;;;;;;5049204;28;20385;-91
2022/11/03 14:06:48;;;;;;;17.65;15.95;;;;;;;;;;5006284;28;20488;-88
2022/11/03 14:09:14;;;;;;;46.35;19.77;;;;;;;;;;5007352;28;20420;-89
2022/11/03 14:58:44;;;;;;;20.95;18.75;;;;;;;;;;5341862;23;20867;-89
2022/11/03 15:01:10;;;;;;;21.65;18.52;;;;;;;;;;5031183;28;20462;-91
2022/11/03 15:03:36;;;;;;;20.95;18.63;;;;;;;;;;5030454;28;20384;-92
2022/11/03 15:06:04;;;;;;;21.50;19.27;;;;;;;;;;5042294;28;20496;-91
2022/11/03 15:08:51;;;;;;;23.02;19.80;;;;;;;;;;5021020;28;20395;-92
2022/11/03 15:11:22;;;;;;;23.05;20.02;;;;;;;;;;5019006;28;20448;-91
2022/11/03 15:13:48;;;;;;;24.20;20.20;;;;;;;;;;5037465;28;20478;-93
2022/11/03 15:16:17;;;;;;;35.55;26.90;;;;;;;;;;5035659;28;20385;-90
2022/11/03 15:18:44;;;;;;;26.88;22.48;;;;;;;;;;5039901;28;20486;-91
2022/11/03 15:21:12;;;;;;;38.22;25.45;;;;;;;;;;5043126;28;20385;-92
2022/11/03 15:23:46;;;;;;;22.98;20.55;;;;;;;;;;5038967;28;20402;-93
2022/11/03 15:26:12;;;;;;;30.00;22.92;;;;;;;;;;5053061;28;20393;-91
2022/11/03 15:28:41;;;;;;;28.23;22.40;;;;;;;;;;5056521;28;20888;-89
2022/11/03 15:31:09;;;;;;;33.47;24.17;;;;;;;;;;5044050;28;20453;-90
2022/11/03 15:33:35;;;;;;;31.42;23.98;;;;;;;;;;5061825;28;20393;-87
2022/11/03 15:36:03;;;;;;;28.80;22.77;;;;;;;;;;5055904;28;20382;-91
2022/11/03 15:38:29;;;;;;;30.85;23.25;;;;;;;;;;5056157;28;20382;-92
2022/11/03 15:41:14;;;;;;;34.33;25.55;;;;;;;;;;5044432;28;20474;-93
2022/11/03 15:43:49;;;;;;;31.70;24.83;;;;;;;;;;5007791;28;20720;-92
2022/11/03 15:46:18;;;;;;;30.45;23.58;;;;;;;;;;5056004;28;20385;-92
2022/11/03 15:48:44;;;;;;;34.35;25.48;;;;;;;;;;5040109;28;20385;-91
2022/11/03 15:51:11;;;;;;;23.50;20.97;;;;;;;;;;5045896;28;20762;-92
2022/11/03 15:53:37;;;;;;;23.45;20.85;;;;;;;;;;5051082;28;20385;-92
2022/11/03 15:56:03;;;;;;;25.45;22.83;;;;;;;;;;5041363;28;20492;-92
2022/11/03 15:58:32;;;;;;;43.97;22.65;;;;;;;;;;5054581;28;20397;-89
2022/11/03 16:00:58;;;;;;;22.40;20.00;;;;;;;;;;5054545;28;20381;-90
2022/11/03 16:03:24;;;;;;;24.17;19.88;;;;;;;;;;5054357;28;20754;-91
2022/11/03 16:05:53;;;;;;;22.65;20.15;;;;;;;;;;5054596;28;20381;-92
2022/11/03 16:08:19;;;;;;;26.15;22.08;;;;;;;;;;5054625;28;20749;-93
2022/11/03 16:10:45;;;;;;;29.95;24.67;;;;;;;;;;5041908;28;20406;-93
2022/11/03 16:13:11;;;;;;;28.77;22.83;;;;;;;;;;5038587;28;20420;-90
2022/11/03 16:15:37;;;;;;;23.58;20.38;;;;;;;;;;5033873;28;20386;-91
2022/11/03 16:18:03;;;;;;;23.98;21.38;;;;;;;;;;5035342;28;20445;-92
2022/11/03 16:20:30;;;;;;;23.33;20.83;;;;;;;;;;5045640;28;20437;-92
2022/11/03 16:22:56;;;;;;;24.83;20.27;;;;;;;;;;5054142;28;20392;-92
2022/11/03 16:25:22;;;;;;;20.15;18.00;;;;;;;;;;5046773;28;20377;-93
2022/11/03 16:27:48;;;;;;;21.63;18.95;;;;;;;;;;5038485;28;20383;-92
2022/11/03 16:30:14;;;;;;;19.80;17.83;;;;;;;;;;5041565;28;20911;-92
2022/11/03 16:32:40;;;;;;;22.45;19.73;;;;;;;;;;5020272;28;20404;-92
2022/11/03 16:35:06;;;;;;;40.90;29.25;;;;;;;;;;5051062;28;20396;-91
2022/11/03 16:37:32;;;;;;;27.48;23.08;;;;;;;;;;5027089;28;20460;-91
2022/11/03 16:39:58;;;;;;;30.17;23.80;;;;;;;;;;5046153;28;20474;-94
2022/11/03 16:42:24;;;;;;;28.65;24.38;;;;;;;;;;5044089;28;20453;-93
2022/11/03 16:44:50;;;;;;;33.78;26.80;;;;;;;;;;5040289;28;20387;-93
2022/11/03 16:47:16;;;;;;;34.83;26.45;;;;;;;;;;5045993;28;20449;-92
2022/11/03 16:49:42;;;;;;;39.05;27.50;;;;;;;;;;5029737;28;20409;-90
2022/11/03 16:52:14;;;;;;;34.13;24.60;;;;;;;;;;5053172;28;20737;-92
2022/11/03 16:54:39;;;;;;;36.65;26.75;;;;;;;;;;5036542;28;20384;-92
2022/11/03 16:57:05;;;;;;;42.75;29.27;;;;;;;;;;5043966;28;20381;-92
2022/11/03 16:59:32;;;;;;;36.53;27.67;;;;;;;;;;5053488;28;20393;-90
2022/11/03 17:01:58;;;;;;;39.08;28.63;;;;;;;;;;5050434;28;20387;-91
2022/11/03 17:04:24;;;;;;;33.67;27.33;;;;;;;;;;5042337;28;20385;-93
2022/11/03 17:06:50;;;;;;;37.08;27.83;;;;;;;;;;5036375;28;20451;-93
2022/11/03 17:09:15;;;;;;;35.47;27.50;;;;;;;;;;5056226;28;20468;-93
2022/11/03 17:12:07;;;;;;;36.42;26.65;;;;;;;;;;5636555;22;20368;-92
2022/11/03 17:26:05;;;;;;;39.58;29.75;;;;;;;;;;5352078;23;20971;-92
2022/11/03 17:28:39;;;;;;;47.22;31.98;;;;;;;;;;5024620;28;20426;-90
2022/11/03 17:37:25;;;;;;;47.40;32.75;;;;;;;;;;5029349;28;20878;-93
2022/11/03 17:40:03;;;;;;;46.25;32.88;;;;;;;;;;5034542;28;20403;-93
2022/11/03 17:42:46;;;;;;;51.20;35.63;;;;;;;;;;5012254;28;20395;-92
2022/11/03 17:45:13;;;;;;;49.75;36.33;;;;;;;;;;5030378;28;20391;-90
2022/11/03 17:47:39;;;;;;;50.58;35.58;;;;;;;;;;5030370;28;20383;-90
2022/11/03 17:53:38;;;;;;;43.38;32.05;;;;;;;;;;5004780;28;20379;-90
2022/11/03 17:56:14;;;;;;;49.65;34.58;;;;;;;;;;5030767;28;20460;-90
2022/11/03 17:58:49;;;;;;;51.53;34.63;;;;;;;;;;5032225;28;20479;-91
2022/11/03 18:01:50;;;;;;;;;;;;;;;;;;;;;
2022/11/03 18:04:28;;;;;;;41.13;32.03;;;;;;;;;;5017350;28;20379;-92
2022/11/03 18:07:05;;;;;;;40.90;30.70;;;;;;;;;;5031284;28;20379;-93
2022/11/03 18:09:37;;;;;;;60.30;39.07;;;;;;;;;;5029284;28;20897;-90
2022/11/03 18:14:56;;;;;;;44.13;31.77;;;;;;;;;;5029273;28;20425;-91
2022/11/03 18:17:25;;;;;;;37.30;29.47;;;;;;;;;;5027748;28;20452;-90
2022/11/03 18:19:53;;;;;;;43.17;32.88;;;;;;;;;;5030281;28;20383;-90
2022/11/03 18:22:19;;;;;;;43.50;31.77;;;;;;;;;;5025811;28;20391;-90
2022/11/03 18:24:45;;;;;;;39.35;29.92;;;;;;;;;;5025233;28;20440;-91
2022/11/03 18:27:17;;;;;;;37.58;28.67;;;;;;;;;;5031165;28;20379;-91
2022/11/03 18:29:49;;;;;;;37.47;28.97;;;;;;;;;;5018201;28;20414;-93
2022/11/03 18:32:18;;;;;;;37.87;27.47;;;;;;;;;;5030282;28;20425;-93
2022/11/03 18:34:49;;;;;;;34.75;29.08;;;;;;;;;;5031108;28;20534;-92
2022/11/03 18:37:15;;;;;;;34.90;26.80;;;;;;;;;;5030803;28;20390;-90
2022/11/03 19:11:12;;;;;;;28.98;24.48;;;;;;;;;;5330005;23;20431;-92
2022/11/03 19:13:53;;;;;;;25.67;22.85;;;;;;;;;;5031608;28;20889;-91
2022/11/03 19:16:42;;;;;;;30.92;24.58;;;;;;;;;;5022859;28;20466;-91
2022/11/03 19:19:59;;;;;;;25.90;23.10;;;;;;;;;;5024724;28;20506;-92
2022/11/03 19:25:35;;;;;;;41.35;29.67;;;;;;;;;;4994871;28;20473;-92
2022/11/03 19:28:35;;;;;;;41.08;30.60;;;;;;;;;;5005233;28;20864;-90
2022/11/03 19:31:26;;;;;;;46.25;31.75;;;;;;;;;;5001995;28;20431;-92
2022/11/03 19:34:30;;;;;;;50.95;35.97;;;;;;;;;;5025589;28;20442;-90
2022/11/03 19:37:40;;;;;;;51.45;36.10;;;;;;;;;;4951554;28;21211;-90
2022/11/03 19:40:24;;;;;;;49.78;34.47;;;;;;;;;;4947505;28;21614;-90
2022/11/03 19:42:59;;;;;;;53.70;35.42;;;;;;;;;;4950979;28;20409;-91
2022/11/03 19:45:46;;;;;;;48.60;34.67;;;;;;;;;;4952852;28;20409;-90
2022/11/03 19:57:24;;;;;;;56.20;36.88;;;;;;;;;;4985042;28;20400;-92
2022/11/03 20:03:34;;;;;;;;;;;;;;;;;;;;;
2022/11/03 20:06:09;;;;;;;40.45;30.77;;;;;;;;;;4975867;28;20459;-93
2022/11/03 20:08:51;;;;;;;36.25;29.35;;;;;;;;;;4983607;28;20451;-91
2022/11/03 20:11:46;;;;;;;38.83;29.27;;;;;;;;;;4985685;28;20973;-90
2022/11/03 20:14:20;;;;;;;42.85;31.98;;;;;;;;;;4920413;29;20401;-91
2022/11/03 20:17:04;;;;;;;41.67;30.50;;;;;;;;;;4981030;28;20410;-91
2022/11/03 20:19:46;;;;;;;40.65;30.88;;;;;;;;;;4974042;28;20416;-92
2022/11/03 20:22:45;;;;;;;;;;;;;;;;;;;;;
2022/11/03 20:45:14;;;;;;;;;;;;;;;;;;;;;
2022/11/03 20:47:33;;;;;;;42.38;32.13;;;;;;;;;;4858330;29;20500;-92
2022/11/03 20:53:14;;;;;;;35.80;28.63;;;;;;;;;;5198234;23;20443;-91
2022/11/03 20:55:57;;;;;;;33.53;27.60;;;;;;;;;;5024070;28;20912;-92
2022/11/03 20:59:02;;;;;;;33.90;27.23;;;;;;;;;;5040504;28;20476;-91
2022/11/03 21:01:49;;;;;;;30.33;25.75;;;;;;;;;;5099158;23;20880;-92
2022/11/03 21:14:10;;;;;;;34.25;26.52;;;;;;;;;;4950913;28;20422;-90
2022/11/03 21:22:17;;;;;;;21.85;18.85;;;;;;;;;;4952989;28;20476;-89
2022/11/03 21:24:45;;;;;;;18.10;15.75;;;;;;;;;;4952826;28;20410;-89
2022/11/03 21:27:12;;;;;;;19.13;12.40;;;;;;;;;;4952671;28;20402;-90
2022/11/03 21:29:38;;;;;;;12.23;11.00;;;;;;;;;;4955464;28;20481;-91
2022/11/03 21:32:05;;;;;;;11.60;10.38;;;;;;;;;;4952719;28;20397;-89
2022/11/03 21:34:31;;;;;;;11.20;9.98;;;;;;;;;;4952613;28;20387;-89
2022/11/03 21:37:00;;;;;;;11.43;9.45;;;;;;;;;;4960503;28;20395;-90
2022/11/03 21:39:29;;;;;;;10.15;9.05;;;;;;;;;;4959715;28;20397;-92
2022/11/03 21:44:42;;;;;;;8.63;7.82;;;;;;;;;;4998980;28;20398;-91
2022/11/03 21:47:08;;;;;;;9.73;8.82;;;;;;;;;;5013763;28;20373;-92
2022/11/03 21:49:43;;;;;;;9.32;8.43;;;;;;;;;;5013236;28;20409;-91
2022/11/03 21:52:13;;;;;;;8.90;8.10;;;;;;;;;;5000401;28;20717;-91
2022/11/03 21:54:39;;;;;;;8.68;7.75;;;;;;;;;;5033475;28;20491;-90
2022/11/03 21:57:07;;;;;;;11.68;8.18;;;;;;;;;;5014730;28;20456;-91
2022/11/03 21:59:33;;;;;;;8.30;7.60;;;;;;;;;;5013544;28;20385;-90
2022/11/03 22:27:51;;;;;;;3.00;2.70;;;;;;;;;;5007777;28;20461;-87
2022/11/03 22:33:02;;;;;;;2.92;2.60;;;;;;;;;;5011548;28;20379;-87
2022/11/03 22:38:14;;;;;;;2.65;2.45;;;;;;;;;;5012362;28;20384;-88
2022/11/03 22:46:12;;;;;;;2.70;1.90;;;;;;;;;;5014773;28;20376;-86
2022/11/03 22:48:37;;;;;;;2.38;2.00;;;;;;;;;;5010087;28;20376;-89
2022/11/03 22:51:08;;;;;;;2.40;1.80;;;;;;;;;;4994619;28;20475;-88
2022/11/03 22:56:21;;;;;;;2.65;2.45;;;;;;;;;;5012355;28;20402;-87
2022/11/03 22:58:47;;;;;;;2.40;2.20;;;;;;;;;;5010736;28;20396;-88
